Time;durP1;ratioP1;P1;durP2;ratioP2;P2;SDS_P1;SDS_P2;PMS_P1;PMS_P2;Temp;Humidity;BMP_temperature;BMP_pressure;BME280_temperature;BME280_humidity;BME280_pressure;Samples;Min_cycle;Max_cycle;Signal;HPM_P1;HPM_P2
2022/02/18 00:37:07;;;;;;;12.15;10.95;;;;;;;;;;6236418;22;20027;-74
2022/02/18 00:39:33;;;;;;;7.80;7.10;;;;;;;;;;6245916;22;20099;-73
2022/02/18 00:41:58;;;;;;;12.52;10.50;;;;;;;;;;6246304;22;20031;-73
2022/02/18 00:44:24;;;;;;;10.95;9.95;;;;;;;;;;6272903;22;20016;-74
2022/02/18 00:46:51;;;;;;;9.55;8.57;;;;;;;;;;6273039;22;20011;-73
2022/02/18 00:49:17;;;;;;;11.02;9.98;;;;;;;;;;6246052;22;20086;-74
2022/02/18 00:51:43;;;;;;;10.88;9.90;;;;;;;;;;6246046;22;20432;-73
2022/02/18 00:54:10;;;;;;;11.45;10.55;;;;;;;;;;6221759;22;20456;-73
2022/02/18 00:56:39;;;;;;;10.63;9.82;;;;;;;;;;6272904;22;20032;-73
2022/02/18 00:59:08;;;;;;;9.68;8.82;;;;;;;;;;6273181;22;20011;-74
2022/02/18 01:01:34;;;;;;;9.40;8.68;;;;;;;;;;6245015;22;20070;-74
2022/02/18 01:04:00;;;;;;;9.82;9.02;;;;;;;;;;6246013;22;20380;-73
2022/02/18 01:06:26;;;;;;;10.88;9.88;;;;;;;;;;6245478;22;20015;-73
2022/02/18 01:08:52;;;;;;;8.85;8.15;;;;;;;;;;6272869;22;20106;-73
2022/02/18 01:11:18;;;;;;;11.23;10.20;;;;;;;;;;6272630;22;20035;-74
2022/02/18 01:13:45;;;;;;;7.43;6.72;;;;;;;;;;6220362;22;20018;-74
2022/02/18 01:16:10;;;;;;;11.20;10.20;;;;;;;;;;6246097;22;20008;-73
2022/02/18 01:18:36;;;;;;;9.82;8.95;;;;;;;;;;6245247;22;20657;-72
2022/02/18 01:21:03;;;;;;;9.43;8.57;;;;;;;;;;6272891;22;20012;-73
2022/02/18 01:23:29;;;;;;;9.43;8.68;;;;;;;;;;6272321;22;20022;-74
2022/02/18 01:25:55;;;;;;;8.50;7.80;;;;;;;;;;6245849;22;20008;-74
2022/02/18 01:28:21;;;;;;;12.43;11.43;;;;;;;;;;6245060;22;20031;-74
2022/02/18 01:30:47;;;;;;;13.32;12.07;;;;;;;;;;6220642;22;20019;-75
2022/02/18 01:33:13;;;;;;;10.63;9.60;;;;;;;;;;6245696;22;20019;-74
2022/02/18 01:35:40;;;;;;;12.80;11.75;;;;;;;;;;6219599;22;20012;-74
2022/02/18 01:38:06;;;;;;;11.45;10.45;;;;;;;;;;6215209;23;20105;-73
2022/02/18 01:40:32;;;;;;;13.32;12.10;;;;;;;;;;6240158;23;20016;-74
2022/02/18 01:42:58;;;;;;;9.95;9.13;;;;;;;;;;6214997;23;20055;-74
2022/02/18 01:45:24;;;;;;;10.85;9.75;;;;;;;;;;6242400;23;20019;-71
2022/02/18 01:47:49;;;;;;;11.50;10.50;;;;;;;;;;6241750;23;20028;-73
2022/02/18 01:50:15;;;;;;;11.35;10.20;;;;;;;;;;6242191;23;20043;-73
2022/02/18 01:52:42;;;;;;;9.85;8.88;;;;;;;;;;6239423;23;20595;-73
2022/02/18 01:55:11;;;;;;;12.50;11.30;;;;;;;;;;6240205;23;20012;-73
2022/02/18 01:57:39;;;;;;;13.60;12.40;;;;;;;;;;6190570;23;20715;-73
2022/02/18 02:00:06;;;;;;;8.98;8.27;;;;;;;;;;6242134;23;20012;-74
2022/02/18 02:02:40;;;;;;;15.18;11.55;;;;;;;;;;6241432;23;20350;-73
2022/02/18 02:05:06;;;;;;;10.20;9.15;;;;;;;;;;6242137;23;20018;-73
2022/02/18 02:07:33;;;;;;;14.15;12.95;;;;;;;;;;6214413;23;20032;-74
2022/02/18 02:09:59;;;;;;;11.57;10.40;;;;;;;;;;6240380;23;20012;-73
2022/02/18 02:12:25;;;;;;;12.98;11.77;;;;;;;;;;6242043;23;20046;-72
2022/02/18 02:14:52;;;;;;;11.13;10.10;;;;;;;;;;6190445;23;20453;-72
2022/02/18 02:17:24;;;;;;;12.02;10.85;;;;;;;;;;6240673;23;20012;-73
2022/02/18 02:19:50;;;;;;;8.45;7.65;;;;;;;;;;6240889;23;20400;-74
2022/02/18 02:22:36;;;;;;;13.23;12.07;;;;;;;;;;6215919;23;20467;-73
2022/02/18 02:25:02;;;;;;;11.43;10.50;;;;;;;;;;6240401;23;20089;-73
2022/02/18 02:27:30;;;;;;;11.63;10.57;;;;;;;;;;6191091;23;20022;-74
2022/02/18 02:29:56;;;;;;;9.73;8.82;;;;;;;;;;6190461;23;20019;-74
2022/02/18 02:32:22;;;;;;;12.63;11.32;;;;;;;;;;6215357;23;20016;-74
2022/02/18 02:34:50;;;;;;;13.55;12.35;;;;;;;;;;6240626;23;20012;-75
2022/02/18 02:37:17;;;;;;;12.13;10.85;;;;;;;;;;6240650;23;20023;-73
2022/02/18 02:39:43;;;;;;;9.82;8.80;;;;;;;;;;6215104;23;20012;-73
2022/02/18 02:42:11;;;;;;;10.57;9.68;;;;;;;;;;6240216;23;20008;-73
2022/02/18 02:44:37;;;;;;;10.93;9.93;;;;;;;;;;6239753;23;20119;-73
2022/02/18 02:47:13;;;;;;;13.25;12.05;;;;;;;;;;6240362;23;20086;-72
2022/02/18 02:49:39;;;;;;;11.48;10.35;;;;;;;;;;6241880;23;20342;-72
2022/02/18 02:52:05;;;;;;;10.13;9.10;;;;;;;;;;6216984;23;20058;-73
2022/02/18 02:54:31;;;;;;;12.57;11.30;;;;;;;;;;6242109;23;20459;-73
2022/02/18 02:57:02;;;;;;;10.60;9.60;;;;;;;;;;6218309;23;20047;-74
2022/02/18 02:59:38;;;;;;;12.43;11.23;;;;;;;;;;6218672;23;20070;-73
2022/02/18 03:02:04;;;;;;;10.57;9.55;;;;;;;;;;6242403;23;20008;-72
2022/02/18 03:04:30;;;;;;;13.48;12.13;;;;;;;;;;6243475;23;20019;-73
2022/02/18 03:06:58;;;;;;;10.27;9.32;;;;;;;;;;6216600;23;20020;-71
2022/02/18 03:09:24;;;;;;;11.43;10.25;;;;;;;;;;6241397;23;20020;-73
2022/02/18 03:12:11;;;;;;;14.55;13.00;;;;;;;;;;6221273;23;20012;-72
2022/02/18 03:14:43;;;;;;;14.73;13.23;;;;;;;;;;6243304;23;20070;-72
2022/02/18 03:17:12;;;;;;;13.70;11.77;;;;;;;;;;6193009;23;20365;-72
2022/02/18 03:19:39;;;;;;;16.00;14.50;;;;;;;;;;6216499;23;20411;-72
2022/02/18 03:22:06;;;;;;;11.95;10.15;;;;;;;;;;6242254;23;20016;-73
2022/02/18 03:24:33;;;;;;;12.95;11.82;;;;;;;;;;6242164;23;20472;-73
2022/02/18 03:26:59;;;;;;;12.05;9.55;;;;;;;;;;6243200;23;20015;-74
2022/02/18 03:29:28;;;;;;;10.43;9.43;;;;;;;;;;6241818;23;20345;-72
2022/02/18 03:31:58;;;;;;;11.52;10.40;;;;;;;;;;6241993;23;20051;-75
2022/02/18 03:34:26;;;;;;;10.27;9.35;;;;;;;;;;6242554;23;20041;-73
2022/02/18 03:36:52;;;;;;;8.88;7.82;;;;;;;;;;6242650;23;20040;-75
2022/02/18 03:39:21;;;;;;;13.23;11.30;;;;;;;;;;6242173;23;20023;-74
2022/02/18 03:41:48;;;;;;;11.98;10.90;;;;;;;;;;6243133;23;20019;-74
2022/02/18 03:44:13;;;;;;;11.05;10.05;;;;;;;;;;6218472;23;20008;-74
2022/02/18 03:46:50;;;;;;;11.65;10.48;;;;;;;;;;6243713;23;20019;-74
2022/02/18 03:49:16;;;;;;;11.60;10.05;;;;;;;;;;6244263;23;20020;-73
2022/02/18 03:51:42;;;;;;;12.90;11.70;;;;;;;;;;6243855;23;20416;-75
2022/02/18 03:54:09;;;;;;;12.27;10.68;;;;;;;;;;6221575;23;20460;-74
2022/02/18 03:56:38;;;;;;;10.65;9.65;;;;;;;;;;6224501;23;20077;-74
2022/02/18 03:59:04;;;;;;;12.93;11.60;;;;;;;;;;6247684;23;20115;-75
2022/02/18 04:01:32;;;;;;;11.35;10.25;;;;;;;;;;6245338;23;20023;-74
2022/02/18 04:03:58;;;;;;;11.63;10.38;;;;;;;;;;6218903;23;20075;-75
2022/02/18 04:06:50;;;;;;;16.58;13.73;;;;;;;;;;6240119;23;20104;-73
2022/02/18 04:09:36;;;;;;;13.68;12.45;;;;;;;;;;6243525;23;20074;-75
2022/02/18 04:12:03;;;;;;;12.15;10.48;;;;;;;;;;6218147;23;20515;-74
2022/02/18 04:14:33;;;;;;;9.80;8.95;;;;;;;;;;6242182;23;20074;-75
2022/02/18 04:17:05;;;;;;;17.58;15.70;;;;;;;;;;6218961;23;20086;-74
2022/02/18 04:19:33;;;;;;;13.00;10.88;;;;;;;;;;6218609;23;20095;-75
2022/02/18 04:22:02;;;;;;;12.48;11.10;;;;;;;;;;6245295;23;20043;-75
2022/02/18 04:24:40;;;;;;;14.98;13.32;;;;;;;;;;6244344;23;20099;-73
2022/02/18 04:27:09;;;;;;;14.95;13.25;;;;;;;;;;6246082;23;20008;-73
2022/02/18 04:29:36;;;;;;;14.18;12.43;;;;;;;;;;6244847;23;20015;-74
2022/02/18 04:32:03;;;;;;;13.50;11.20;;;;;;;;;;6246030;23;20016;-74
2022/02/18 04:34:28;;;;;;;11.18;10.02;;;;;;;;;;6245091;23;20076;-75
2022/02/18 04:36:54;;;;;;;15.30;12.93;;;;;;;;;;6245591;22;20468;-74
2022/02/18 04:39:21;;;;;;;18.45;14.43;;;;;;;;;;6245496;23;20019;-75
2022/02/18 04:41:47;;;;;;;18.73;14.70;;;;;;;;;;6245116;23;20008;-75
2022/02/18 04:44:16;;;;;;;18.67;15.02;;;;;;;;;;6244602;23;20020;-75
2022/02/18 04:46:42;;;;;;;18.42;13.52;;;;;;;;;;6244679;23;20483;-74
2022/02/18 04:49:08;;;;;;;25.45;16.73;;;;;;;;;;6247884;23;20114;-74
2022/02/18 04:51:37;;;;;;;23.48;15.55;;;;;;;;;;6244718;23;20456;-74
2022/02/18 04:54:03;;;;;;;22.25;19.15;;;;;;;;;;6245816;23;20040;-73
2022/02/18 04:56:29;;;;;;;22.00;16.25;;;;;;;;;;6245484;23;20004;-74
2022/02/18 04:58:55;;;;;;;21.88;16.23;;;;;;;;;;6217239;23;20019;-74
2022/02/18 05:01:21;;;;;;;20.85;14.38;;;;;;;;;;6245948;23;20004;-74
2022/02/18 05:03:46;;;;;;;23.50;16.75;;;;;;;;;;6243247;23;20016;-74
2022/02/18 05:06:14;;;;;;;26.35;16.95;;;;;;;;;;6243301;23;20040;-74
2022/02/18 05:08:40;;;;;;;27.70;18.83;;;;;;;;;;6244958;23;20019;-75
2022/02/18 05:11:06;;;;;;;17.48;12.00;;;;;;;;;;6218832;23;20008;-74
2022/02/18 05:13:32;;;;;;;28.10;18.40;;;;;;;;;;6247160;23;20026;-73
2022/02/18 05:15:58;;;;;;;22.48;15.60;;;;;;;;;;6254827;23;20009;-73
2022/02/18 05:18:24;;;;;;;29.58;18.48;;;;;;;;;;6244597;23;20022;-72
2022/02/18 05:20:50;;;;;;;13.38;9.45;;;;;;;;;;6243695;23;20012;-73
2022/02/18 05:23:16;;;;;;;22.70;16.38;;;;;;;;;;6243359;23;20103;-75
2022/02/18 05:25:42;;;;;;;15.35;12.50;;;;;;;;;;6243868;23;20522;-73
2022/02/18 05:28:08;;;;;;;25.90;16.23;;;;;;;;;;6238067;23;20019;-75
2022/02/18 05:30:35;;;;;;;28.95;19.92;;;;;;;;;;6241618;23;20012;-76
2022/02/18 05:33:02;;;;;;;26.40;18.38;;;;;;;;;;6242208;23;20012;-76
2022/02/18 05:35:28;;;;;;;19.55;15.05;;;;;;;;;;6241548;23;20012;-75
2022/02/18 05:37:54;;;;;;;19.08;14.13;;;;;;;;;;6215481;23;20035;-75
2022/02/18 05:40:20;;;;;;;19.40;13.95;;;;;;;;;;6240536;23;20012;-72
2022/02/18 05:42:47;;;;;;;21.10;15.15;;;;;;;;;;6189430;23;20012;-76
2022/02/18 05:45:16;;;;;;;22.52;15.38;;;;;;;;;;6242107;23;20091;-75
2022/02/18 05:47:46;;;;;;;21.45;16.10;;;;;;;;;;6239489;23;20107;-77
2022/02/18 05:50:12;;;;;;;21.00;14.60;;;;;;;;;;6240858;23;20023;-75
2022/02/18 05:52:38;;;;;;;13.05;11.13;;;;;;;;;;6240608;23;20008;-74
2022/02/18 05:55:04;;;;;;;14.82;9.48;;;;;;;;;;6240668;23;20019;-74
2022/02/18 05:57:30;;;;;;;16.27;12.68;;;;;;;;;;6240603;23;20012;-74
2022/02/18 05:59:56;;;;;;;17.10;12.90;;;;;;;;;;6213608;23;20008;-74
2022/02/18 06:02:22;;;;;;;16.52;12.55;;;;;;;;;;6211564;23;20055;-74
2022/02/18 06:04:49;;;;;;;17.85;14.88;;;;;;;;;;6238774;23;20008;-76
2022/02/18 06:07:16;;;;;;;13.02;10.90;;;;;;;;;;6189935;23;20023;-73
2022/02/18 06:09:42;;;;;;;12.93;11.40;;;;;;;;;;6244069;23;20112;-73
2022/02/18 06:12:08;;;;;;;18.25;13.70;;;;;;;;;;6217136;23;20011;-73
2022/02/18 06:14:37;;;;;;;12.23;10.68;;;;;;;;;;6243552;23;20398;-73
2022/02/18 06:17:09;;;;;;;14.23;12.93;;;;;;;;;;6217679;23;20008;-72
2022/02/18 06:19:35;;;;;;;12.45;11.23;;;;;;;;;;6241017;23;20016;-72
2022/02/18 06:22:01;;;;;;;9.02;8.18;;;;;;;;;;6241181;23;20659;-72
2022/02/18 06:24:27;;;;;;;12.45;11.00;;;;;;;;;;6244896;23;20031;-74
2022/02/18 06:26:54;;;;;;;12.23;9.77;;;;;;;;;;6244845;23;20072;-73
2022/02/18 06:29:20;;;;;;;9.70;8.88;;;;;;;;;;6246914;23;20456;-74
2022/02/18 06:31:47;;;;;;;9.20;7.85;;;;;;;;;;6241637;23;20035;-74
2022/02/18 06:34:14;;;;;;;7.55;6.85;;;;;;;;;;6243910;23;20432;-74
2022/02/18 06:36:40;;;;;;;8.52;7.72;;;;;;;;;;6241208;23;20069;-72
2022/02/18 06:39:06;;;;;;;9.90;9.10;;;;;;;;;;6242855;23;20027;-73
2022/02/18 06:41:32;;;;;;;9.57;8.77;;;;;;;;;;6214455;23;20016;-72
2022/02/18 06:43:58;;;;;;;8.57;7.85;;;;;;;;;;6239885;23;20020;-73
2022/02/18 06:46:24;;;;;;;10.23;9.23;;;;;;;;;;6241727;23;20111;-73
2022/02/18 06:48:49;;;;;;;11.43;10.27;;;;;;;;;;6239037;23;20472;-72
2022/02/18 06:51:16;;;;;;;11.15;10.02;;;;;;;;;;6241689;23;20491;-72
2022/02/18 06:53:41;;;;;;;11.60;10.65;;;;;;;;;;6241570;23;20059;-72
2022/02/18 06:56:08;;;;;;;8.57;7.85;;;;;;;;;;6242269;23;20429;-73
2022/02/18 06:58:34;;;;;;;10.20;9.30;;;;;;;;;;6241512;23;20015;-73
2022/02/18 07:01:00;;;;;;;11.68;10.57;;;;;;;;;;6240054;23;20008;-72
2022/02/18 07:03:26;;;;;;;10.18;9.15;;;;;;;;;;6240857;23;20016;-74
2022/02/18 07:05:52;;;;;;;11.27;9.75;;;;;;;;;;6242437;23;20019;-73
2022/02/18 07:08:18;;;;;;;11.48;10.32;;;;;;;;;;6240625;23;20016;-74
2022/02/18 07:10:44;;;;;;;13.77;12.57;;;;;;;;;;6239892;23;20062;-72
2022/02/18 07:13:10;;;;;;;6.97;6.40;;;;;;;;;;6241722;23;20016;-72
2022/02/18 07:15:36;;;;;;;11.48;10.07;;;;;;;;;;6241170;23;20028;-72
2022/02/18 07:18:04;;;;;;;11.57;10.60;;;;;;;;;;6238981;23;20111;-71
2022/02/18 07:20:30;;;;;;;13.48;10.10;;;;;;;;;;6215119;23;20012;-72
2022/02/18 07:22:56;;;;;;;8.98;8.07;;;;;;;;;;6240863;23;20012;-72
2022/02/18 07:25:22;;;;;;;12.85;11.63;;;;;;;;;;6241266;23;20004;-72
2022/02/18 07:27:48;;;;;;;11.38;10.18;;;;;;;;;;6238982;23;20504;-72
2022/02/18 07:30:14;;;;;;;14.00;12.70;;;;;;;;;;6241258;23;20015;-73
2022/02/18 07:32:40;;;;;;;13.70;12.50;;;;;;;;;;6238552;23;20032;-73
2022/02/18 07:35:06;;;;;;;13.25;12.13;;;;;;;;;;6240695;23;20011;-72
2022/02/18 07:37:32;;;;;;;14.38;12.88;;;;;;;;;;6241141;23;20032;-73
2022/02/18 07:39:58;;;;;;;14.57;13.23;;;;;;;;;;6241318;23;20039;-72
2022/02/18 07:42:24;;;;;;;11.95;10.82;;;;;;;;;;6241073;23;20023;-72
2022/02/18 07:44:50;;;;;;;16.35;14.70;;;;;;;;;;6239631;23;20012;-72
2022/02/18 07:47:16;;;;;;;13.70;12.40;;;;;;;;;;6239582;23;20015;-72
2022/02/18 07:49:43;;;;;;;11.10;10.00;;;;;;;;;;6240101;23;20027;-72
2022/02/18 07:52:09;;;;;;;17.73;14.07;;;;;;;;;;6237798;23;20035;-72
2022/02/18 07:54:35;;;;;;;12.65;10.10;;;;;;;;;;6239194;23;20115;-72
2022/02/18 07:57:01;;;;;;;11.38;10.38;;;;;;;;;;6242335;23;20035;-72
2022/02/18 07:59:27;;;;;;;16.98;15.13;;;;;;;;;;6240646;23;20012;-72
2022/02/18 08:01:53;;;;;;;12.77;11.68;;;;;;;;;;6241960;23;20452;-71
2022/02/18 08:04:19;;;;;;;7.53;6.90;;;;;;;;;;6240320;23;20128;-73
2022/02/18 08:06:45;;;;;;;13.55;12.25;;;;;;;;;;6243123;23;20082;-73
2022/02/18 08:09:11;;;;;;;10.32;9.43;;;;;;;;;;6243854;23;20075;-73
2022/02/18 08:11:37;;;;;;;8.52;7.82;;;;;;;;;;6243339;23;20091;-72
2022/02/18 08:14:03;;;;;;;12.38;11.20;;;;;;;;;;6191128;23;20012;-72
2022/02/18 08:16:31;;;;;;;11.07;10.07;;;;;;;;;;6242630;23;20012;-72
2022/02/18 08:18:58;;;;;;;13.57;12.48;;;;;;;;;;6240457;23;20483;-72
2022/02/18 08:21:26;;;;;;;10.60;9.50;;;;;;;;;;6240058;23;20361;-75
2022/02/18 08:23:52;;;;;;;10.48;9.57;;;;;;;;;;6241516;23;20016;-72
2022/02/18 08:26:22;;;;;;;9.80;8.90;;;;;;;;;;6213463;23;20039;-72
2022/02/18 08:28:48;;;;;;;7.05;6.55;;;;;;;;;;6238861;23;20016;-73
2022/02/18 08:31:14;;;;;;;6.78;6.15;;;;;;;;;;6214087;23;20030;-73
2022/02/18 08:33:40;;;;;;;4.32;4.03;;;;;;;;;;6240694;23;20449;-72
2022/02/18 08:36:06;;;;;;;3.03;2.83;;;;;;;;;;6240058;23;20067;-74
2022/02/18 08:38:32;;;;;;;3.97;3.67;;;;;;;;;;6241441;22;20034;-76
2022/02/18 08:40:58;;;;;;;4.82;4.53;;;;;;;;;;6239917;23;20012;-75
2022/02/18 08:43:27;;;;;;;6.28;4.07;;;;;;;;;;6239664;23;20008;-75
2022/02/18 08:45:53;;;;;;;5.47;2.85;;;;;;;;;;6239432;23;20012;-76
2022/02/18 08:48:19;;;;;;;3.10;2.90;;;;;;;;;;6239592;23;20103;-76
2022/02/18 08:50:45;;;;;;;3.00;2.55;;;;;;;;;;6239477;23;20089;-76
2022/02/18 08:53:12;;;;;;;7.15;4.07;;;;;;;;;;6240948;23;20024;-75
2022/02/18 08:55:38;;;;;;;5.45;3.58;;;;;;;;;;6239116;23;20034;-76
2022/02/18 08:58:05;;;;;;;4.50;4.10;;;;;;;;;;6238623;23;20504;-74
2022/02/18 09:00:31;;;;;;;4.53;4.13;;;;;;;;;;6213668;23;20034;-72
2022/02/18 09:02:57;;;;;;;3.10;2.90;;;;;;;;;;6238603;23;20016;-72
2022/02/18 09:05:24;;;;;;;3.58;3.28;;;;;;;;;;6238619;23;20019;-71
2022/02/18 09:07:50;;;;;;;4.10;3.80;;;;;;;;;;6239062;23;20020;-72
2022/02/18 09:10:16;;;;;;;4.13;3.83;;;;;;;;;;6238245;23;20012;-72
2022/02/18 09:12:42;;;;;;;4.30;4.00;;;;;;;;;;6237023;23;20023;-72
2022/02/18 09:15:09;;;;;;;3.75;3.38;;;;;;;;;;6240139;23;20023;-72
2022/02/18 09:17:49;;;;;;;2.67;2.55;;;;;;;;;;6238055;23;20457;-72
2022/02/18 09:20:15;;;;;;;4.18;3.88;;;;;;;;;;6239113;23;20494;-74
2022/02/18 09:22:40;;;;;;;5.50;4.93;;;;;;;;;;6238351;23;20551;-75
2022/02/18 09:25:06;;;;;;;7.43;4.40;;;;;;;;;;6239588;23;20018;-73
2022/02/18 09:27:33;;;;;;;4.10;3.85;;;;;;;;;;6240759;23;20036;-76
2022/02/18 09:30:02;;;;;;;3.78;3.30;;;;;;;;;;6242051;23;20074;-75
2022/02/18 09:32:29;;;;;;;3.53;3.28;;;;;;;;;;6240157;23;20034;-75
2022/02/18 09:34:58;;;;;;;3.70;2.92;;;;;;;;;;6240550;23;20019;-75
2022/02/18 09:37:24;;;;;;;5.15;3.33;;;;;;;;;;6238999;23;20020;-76
2022/02/18 09:39:50;;;;;;;5.32;3.20;;;;;;;;;;6240491;23;20507;-75
2022/02/18 09:42:16;;;;;;;2.33;2.22;;;;;;;;;;6240778;23;20433;-75
2022/02/18 09:44:42;;;;;;;3.28;3.05;;;;;;;;;;6239053;23;20211;-75
2022/02/18 09:47:08;;;;;;;2.97;2.78;;;;;;;;;;6241803;23;20095;-75
2022/02/18 09:49:34;;;;;;;3.05;2.80;;;;;;;;;;6213773;23;20031;-74
2022/02/18 09:52:01;;;;;;;2.47;2.38;;;;;;;;;;6240144;23;20401;-75
2022/02/18 09:54:28;;;;;;;2.00;1.90;;;;;;;;;;6242184;23;20050;-75
2022/02/18 09:56:54;;;;;;;2.65;2.55;;;;;;;;;;6238956;23;20040;-76
2022/02/18 09:59:20;;;;;;;2.55;2.45;;;;;;;;;;6239856;23;20115;-75
2022/02/18 10:01:46;;;;;;;2.30;2.20;;;;;;;;;;6240739;23;20016;-74
2022/02/18 10:04:12;;;;;;;2.50;2.30;;;;;;;;;;6239803;23;20016;-75
2022/02/18 10:06:41;;;;;;;2.03;1.92;;;;;;;;;;6214321;23;20012;-76
2022/02/18 10:09:08;;;;;;;2.80;2.60;;;;;;;;;;6240211;23;20452;-75
2022/02/18 10:11:56;;;;;;;3.70;3.38;;;;;;;;;;6240543;23;20034;-75
2022/02/18 10:14:22;;;;;;;3.13;2.92;;;;;;;;;;6192412;23;20027;-75
2022/02/18 10:16:48;;;;;;;2.63;2.42;;;;;;;;;;6244158;23;20016;-75
2022/02/18 10:19:14;;;;;;;2.90;2.70;;;;;;;;;;6251882;23;20013;-75
2022/02/18 10:21:40;;;;;;;3.47;2.75;;;;;;;;;;6252281;23;20404;-76
2022/02/18 10:24:08;;;;;;;3.30;3.10;;;;;;;;;;6251147;23;20421;-75
2022/02/18 10:26:37;;;;;;;4.30;2.80;;;;;;;;;;6246614;23;20491;-75
2022/02/18 10:29:07;;;;;;;2.75;2.55;;;;;;;;;;6240628;23;20024;-75
2022/02/18 10:31:33;;;;;;;2.70;2.50;;;;;;;;;;6241874;23;20016;-74
2022/02/18 10:34:00;;;;;;;3.08;2.88;;;;;;;;;;6238744;23;20042;-74
2022/02/18 10:36:34;;;;;;;5.90;3.47;;;;;;;;;;6240362;23;20066;-74
2022/02/18 10:39:18;;;;;;;5.45;3.40;;;;;;;;;;6240017;22;20547;-75
2022/02/18 10:41:52;;;;;;;3.80;3.30;;;;;;;;;;6238593;23;20149;-73
2022/02/18 10:44:18;;;;;;;3.33;3.00;;;;;;;;;;6239277;23;20023;-74
2022/02/18 10:46:45;;;;;;;3.97;2.78;;;;;;;;;;6239759;23;20008;-75
2022/02/18 10:49:19;;;;;;;2.88;2.67;;;;;;;;;;6239123;23;20020;-75
2022/02/18 10:51:46;;;;;;;3.10;2.80;;;;;;;;;;6238414;23;20031;-74
2022/02/18 10:54:14;;;;;;;3.15;2.20;;;;;;;;;;6239174;23;20449;-75
2022/02/18 10:56:40;;;;;;;2.58;2.25;;;;;;;;;;6238552;23;20008;-75
2022/02/18 10:59:07;;;;;;;3.33;2.70;;;;;;;;;;6240053;23;20031;-75
2022/02/18 11:01:33;;;;;;;1.90;1.80;;;;;;;;;;6213385;23;20522;-76
2022/02/18 11:04:00;;;;;;;1.48;1.40;;;;;;;;;;6238386;23;20084;-75
2022/02/18 11:06:33;;;;;;;0.90;0.90;;;;;;;;;;6239402;23;20016;-75
2022/02/18 11:09:14;;;;;;;1.23;1.23;;;;;;;;;;6240680;23;20027;-75
2022/02/18 11:11:45;;;;;;;1.10;1.10;;;;;;;;;;6240708;23;20083;-75
2022/02/18 11:14:12;;;;;;;1.00;1.00;;;;;;;;;;6215793;23;20035;-75
2022/02/18 11:16:41;;;;;;;0.93;0.93;;;;;;;;;;6241883;23;20015;-75
2022/02/18 11:19:09;;;;;;;1.00;1.00;;;;;;;;;;6242679;23;20012;-75
2022/02/18 11:21:35;;;;;;;4.18;1.27;;;;;;;;;;6243064;23;20012;-74
2022/02/18 11:24:02;;;;;;;1.88;1.40;;;;;;;;;;6245716;23;20016;-74
2022/02/18 11:26:28;;;;;;;1.00;1.00;;;;;;;;;;6243277;23;20008;-75
2022/02/18 11:28:55;;;;;;;2.33;1.50;;;;;;;;;;6214076;23;20024;-73
2022/02/18 11:31:25;;;;;;;1.40;1.40;;;;;;;;;;6241821;23;20024;-74
2022/02/18 11:33:51;;;;;;;1.42;1.42;;;;;;;;;;6240231;23;20019;-74
2022/02/18 11:36:37;;;;;;;1.08;1.08;;;;;;;;;;6239802;23;20361;-73
2022/02/18 11:39:18;;;;;;;2.20;1.55;;;;;;;;;;6214301;23;20028;-73
2022/02/18 11:41:48;;;;;;;2.00;1.77;;;;;;;;;;6239118;23;20012;-73
2022/02/18 11:44:16;;;;;;;1.10;1.10;;;;;;;;;;6239757;23;20008;-73
2022/02/18 11:46:44;;;;;;;2.47;2.28;;;;;;;;;;6238965;23;20020;-73
2022/02/18 11:49:10;;;;;;;2.00;1.90;;;;;;;;;;6241130;23;20020;-73
2022/02/18 11:51:41;;;;;;;3.50;2.15;;;;;;;;;;6239444;23;20012;-74
2022/02/18 11:54:26;;;;;;;1.98;1.83;;;;;;;;;;6240845;23;20070;-73
2022/02/18 11:56:59;;;;;;;1.80;1.60;;;;;;;;;;6241315;23;20034;-74
2022/02/18 12:00:06;;;;;;;2.95;1.85;;;;;;;;;;6196616;23;20346;-74
2022/02/18 12:02:51;;;;;;;2.40;1.70;;;;;;;;;;6114236;23;20018;-75
2022/02/18 12:05:18;;;;;;;1.75;1.70;;;;;;;;;;6047782;23;20017;-74
2022/02/18 12:07:48;;;;;;;1.95;1.85;;;;;;;;;;6190030;23;20031;-77
2022/02/18 12:10:15;;;;;;;1.48;1.38;;;;;;;;;;6242429;23;20065;-75
2022/02/18 12:12:41;;;;;;;1.80;1.70;;;;;;;;;;6241803;23;20012;-76
2022/02/18 12:15:11;;;;;;;1.30;1.30;;;;;;;;;;6165042;23;20023;-74
2022/02/18 12:17:39;;;;;;;2.45;2.00;;;;;;;;;;6215516;23;20018;-75
2022/02/18 12:20:12;;;;;;;2.30;2.10;;;;;;;;;;6216224;23;20455;-77
2022/02/18 12:22:38;;;;;;;2.85;2.20;;;;;;;;;;6214274;23;20015;-74
2022/02/18 12:25:24;;;;;;;2.00;1.90;;;;;;;;;;6241072;23;20134;-74
2022/02/18 12:28:10;;;;;;;1.50;1.50;;;;;;;;;;6241231;23;20025;-76
2022/02/18 12:30:40;;;;;;;1.73;1.63;;;;;;;;;;6192696;23;20016;-75
2022/02/18 12:33:06;;;;;;;2.70;1.58;;;;;;;;;;6189259;23;20062;-76
2022/02/18 12:35:34;;;;;;;1.27;1.27;;;;;;;;;;6240169;23;20019;-74
2022/02/18 12:38:01;;;;;;;1.73;1.52;;;;;;;;;;6237162;22;20019;-74
2022/02/18 12:40:29;;;;;;;2.38;1.50;;;;;;;;;;6239399;23;20066;-74
2022/02/18 12:43:17;;;;;;;1.70;1.60;;;;;;;;;;6238897;23;20074;-75
2022/02/18 12:45:46;;;;;;;1.10;1.10;;;;;;;;;;6241657;23;20020;-74
2022/02/18 12:48:12;;;;;;;1.52;1.45;;;;;;;;;;6216235;23;20048;-74
2022/02/18 12:50:39;;;;;;;1.23;1.23;;;;;;;;;;6242865;23;20471;-74
2022/02/18 12:53:05;;;;;;;1.42;1.42;;;;;;;;;;6242647;23;20015;-74
2022/02/18 12:55:35;;;;;;;1.83;1.73;;;;;;;;;;6217889;23;20089;-74
2022/02/18 12:58:01;;;;;;;1.25;1.20;;;;;;;;;;6245482;23;20007;-74
2022/02/18 13:00:27;;;;;;;3.97;1.75;;;;;;;;;;6245248;23;20019;-76
2022/02/18 13:02:56;;;;;;;1.88;1.77;;;;;;;;;;6245537;23;20356;-76
2022/02/18 13:05:26;;;;;;;1.98;1.88;;;;;;;;;;6243873;23;20012;-74
2022/02/18 13:07:55;;;;;;;1.92;1.83;;;;;;;;;;6244162;23;20357;-74
2022/02/18 13:10:22;;;;;;;2.72;2.10;;;;;;;;;;6218157;23;20020;-74
2022/02/18 13:12:50;;;;;;;2.03;1.83;;;;;;;;;;6216358;23;20012;-74
2022/02/18 13:15:16;;;;;;;2.35;2.15;;;;;;;;;;6243951;23;20011;-74
2022/02/18 13:17:46;;;;;;;1.90;1.80;;;;;;;;;;6244401;23;20020;-74
2022/02/18 13:20:15;;;;;;;2.00;1.83;;;;;;;;;;6218920;23;20012;-74
2022/02/18 13:22:42;;;;;;;3.42;2.05;;;;;;;;;;6218387;23;20465;-75
2022/02/18 13:25:20;;;;;;;4.95;2.05;;;;;;;;;;6246350;23;20015;-74
2022/02/18 13:27:46;;;;;;;2.10;1.73;;;;;;;;;;6218194;23;20027;-74
2022/02/18 13:30:12;;;;;;;3.38;2.17;;;;;;;;;;6193052;23;20020;-74
2022/02/18 13:32:38;;;;;;;5.20;2.33;;;;;;;;;;6217458;23;20078;-74
2022/02/18 13:35:04;;;;;;;1.80;1.70;;;;;;;;;;6244548;23;20012;-73
2022/02/18 13:37:33;;;;;;;1.80;1.70;;;;;;;;;;6244669;23;20074;-76
2022/02/18 13:39:59;;;;;;;3.80;1.55;;;;;;;;;;6192765;23;20015;-75
2022/02/18 13:42:26;;;;;;;2.70;1.98;;;;;;;;;;6244413;23;20019;-74
2022/02/18 13:44:58;;;;;;;2.10;1.98;;;;;;;;;;6217995;23;20016;-74
2022/02/18 13:47:29;;;;;;;1.83;1.73;;;;;;;;;;6217876;23;20087;-75
2022/02/18 13:49:55;;;;;;;1.55;1.50;;;;;;;;;;6191231;23;20020;-73
2022/02/18 13:52:21;;;;;;;1.95;1.77;;;;;;;;;;6243731;23;20528;-74
2022/02/18 13:54:46;;;;;;;2.17;1.80;;;;;;;;;;6242762;23;20018;-74
2022/02/18 13:57:14;;;;;;;1.80;1.70;;;;;;;;;;6215575;23;20012;-74
2022/02/18 13:59:42;;;;;;;2.85;1.90;;;;;;;;;;6191662;23;20008;-76
2022/02/18 14:02:18;;;;;;;1.95;1.85;;;;;;;;;;6217091;23;20463;-74
2022/02/18 14:04:45;;;;;;;1.63;1.52;;;;;;;;;;6243545;23;20012;-75
2022/02/18 14:07:15;;;;;;;2.90;1.70;;;;;;;;;;6242780;23;20016;-74
2022/02/18 14:09:41;;;;;;;2.75;1.95;;;;;;;;;;6215525;23;20026;-75
2022/02/18 14:12:08;;;;;;;1.80;1.70;;;;;;;;;;6242638;23;20012;-74
2022/02/18 14:14:34;;;;;;;1.40;1.35;;;;;;;;;;6215604;23;20012;-74
2022/02/18 14:17:01;;;;;;;1.70;1.60;;;;;;;;;;6242554;23;20015;-74
2022/02/18 14:19:47;;;;;;;1.65;1.50;;;;;;;;;;6243366;23;20023;-75
2022/02/18 14:22:14;;;;;;;1.58;1.50;;;;;;;;;;6215986;23;20016;-74
2022/02/18 14:24:40;;;;;;;1.77;1.67;;;;;;;;;;6243409;23;20666;-75
2022/02/18 14:27:12;;;;;;;1.65;1.55;;;;;;;;;;6243281;23;20009;-76
2022/02/18 14:29:51;;;;;;;1.67;1.58;;;;;;;;;;6243347;23;20021;-75
2022/02/18 14:32:24;;;;;;;1.85;1.70;;;;;;;;;;6243572;23;20038;-74
2022/02/18 14:35:06;;;;;;;8.93;1.55;;;;;;;;;;6243426;23;20491;-75
2022/02/18 14:37:32;;;;;;;2.40;2.22;;;;;;;;;;6166805;23;20024;-74
2022/02/18 14:40:11;;;;;;;2.58;1.90;;;;;;;;;;6215817;23;20046;-76
2022/02/18 14:42:38;;;;;;;1.70;1.60;;;;;;;;;;6242704;23;20042;-74
2022/02/18 14:45:08;;;;;;;2.03;1.92;;;;;;;;;;6217363;23;20012;-75
2022/02/18 14:47:37;;;;;;;4.15;2.10;;;;;;;;;;6217212;23;20008;-74
2022/02/18 14:50:03;;;;;;;1.45;1.45;;;;;;;;;;6243231;23;20102;-75
2022/02/18 14:52:29;;;;;;;2.60;1.40;;;;;;;;;;6243776;23;20051;-75
2022/02/18 14:54:55;;;;;;;1.70;1.60;;;;;;;;;;6216535;23;20470;-74
2022/02/18 14:57:21;;;;;;;3.03;1.52;;;;;;;;;;6142772;23;20448;-75
2022/02/18 14:59:49;;;;;;;1.65;1.55;;;;;;;;;;6216404;23;20036;-75
2022/02/18 15:02:16;;;;;;;5.43;2.13;;;;;;;;;;6217247;23;20337;-75
2022/02/18 15:04:42;;;;;;;3.38;1.95;;;;;;;;;;6245231;23;20019;-75
2022/02/18 15:07:08;;;;;;;1.98;1.60;;;;;;;;;;6243526;23;20012;-74
2022/02/18 15:09:34;;;;;;;2.03;1.92;;;;;;;;;;6216417;23;20020;-74
2022/02/18 15:12:00;;;;;;;1.98;1.42;;;;;;;;;;6242873;23;20482;-79
2022/02/18 15:14:26;;;;;;;1.90;1.80;;;;;;;;;;6245142;23;20008;-74